createdAt,value
2022-10-16T00:01:47.408Z,12.90
2022-10-16T00:04:16.414Z,12.90
2022-10-16T00:06:44.617Z,12.90
2022-10-16T00:09:13.268Z,13.00
2022-10-16T00:11:42.841Z,13.00
2022-10-16T00:14:14.635Z,12.90
2022-10-16T00:16:43.209Z,12.90
2022-10-16T00:19:13.366Z,12.80
2022-10-16T00:21:41.792Z,12.90
2022-10-16T00:24:29.622Z,12.90
2022-10-16T00:26:57.734Z,12.80
2022-10-16T00:29:25.622Z,12.80
2022-10-16T00:31:53.540Z,12.70
2022-10-16T00:34:21.804Z,12.70
2022-10-16T00:36:50.568Z,12.60
2022-10-16T00:39:19.453Z,12.60
2022-10-16T00:41:47.480Z,12.60
2022-10-16T00:44:46.490Z,12.60
2022-10-16T00:47:43.582Z,12.60
2022-10-16T00:50:25.368Z,12.60
2022-10-16T00:52:54.493Z,12.50
2022-10-16T00:55:23.282Z,12.50
2022-10-16T00:57:52.264Z,12.50
2022-10-16T01:00:25.386Z,12.50
2022-10-16T01:02:58.133Z,12.50
2022-10-16T01:05:44.725Z,12.60
2022-10-16T01:08:27.166Z,12.60
2022-10-16T01:11:00.311Z,12.60
2022-10-16T01:13:38.391Z,12.60
2022-10-16T01:16:15.119Z,12.70
2022-10-16T01:18:43.075Z,12.60
2022-10-16T01:21:23.033Z,12.60
2022-10-16T01:24:36.966Z,12.60
2022-10-16T01:27:29.174Z,12.50
2022-10-16T01:30:18.873Z,12.60
2022-10-16T01:33:08.879Z,12.50
2022-10-16T01:35:42.457Z,12.50
2022-10-16T01:38:18.926Z,12.40
2022-10-16T01:40:53.064Z,12.40
2022-10-16T01:43:43.339Z,12.40
2022-10-16T01:46:14.296Z,12.50
2022-10-16T01:48:42.898Z,12.50
2022-10-16T01:51:14.709Z,12.40
2022-10-16T01:53:48.440Z,12.40
2022-10-16T01:56:18.477Z,12.50
2022-10-16T01:58:51.254Z,12.50
2022-10-16T02:01:23.075Z,12.50
2022-10-16T02:03:55.122Z,12.40
2022-10-16T02:06:24.184Z,12.30
2022-10-16T02:08:52.617Z,12.30
2022-10-16T02:11:20.649Z,12.20
2022-10-16T02:13:56.886Z,12.10
2022-10-16T02:16:47.564Z,12.00
2022-10-16T02:19:18.326Z,12.00
2022-10-16T02:21:51.978Z,12.00
2022-10-16T02:24:38.670Z,12.00
2022-10-16T02:27:14.534Z,12.00
2022-10-16T02:29:49.353Z,12.00
2022-10-16T02:32:23.111Z,12.00
2022-10-16T02:34:53.012Z,12.00
2022-10-16T02:37:22.575Z,12.00
2022-10-16T02:39:50.802Z,11.90
2022-10-16T02:42:19.788Z,12.00
2022-10-16T02:44:48.369Z,12.10
2022-10-16T02:47:16.325Z,12.10
2022-10-16T02:49:44.926Z,12.00
2022-10-16T02:52:13.520Z,12.00
2022-10-16T02:54:41.980Z,12.00
2022-10-16T02:57:10.536Z,12.00
2022-10-16T02:59:38.965Z,12.00
2022-10-16T03:02:07.476Z,12.00
2022-10-16T03:04:35.584Z,12.10
2022-10-16T03:07:04.346Z,12.10
2022-10-16T03:09:32.925Z,12.10
2022-10-16T03:12:01.151Z,12.00
2022-10-16T03:14:29.313Z,12.00
2022-10-16T03:16:57.444Z,12.10
2022-10-16T03:19:26.026Z,12.10
2022-10-16T03:21:54.062Z,12.10
2022-10-16T03:24:22.030Z,12.10
2022-10-16T03:26:50.863Z,12.10
2022-10-16T03:29:18.873Z,12.10
2022-10-16T03:31:46.852Z,12.00
2022-10-16T03:34:16.145Z,12.00
2022-10-16T03:36:44.128Z,12.00
2022-10-16T03:39:12.546Z,12.10
2022-10-16T03:41:41.279Z,12.20
2022-10-16T03:44:09.468Z,12.20
2022-10-16T03:46:37.329Z,12.10
2022-10-16T03:49:08.865Z,12.10
2022-10-16T03:51:38.505Z,12.00
2022-10-16T03:54:06.636Z,12.00
2022-10-16T03:56:35.102Z,12.00
2022-10-16T03:59:03.683Z,11.90
2022-10-16T04:01:31.873Z,11.80
2022-10-16T04:03:59.781Z,11.80
2022-10-16T04:06:28.700Z,11.80
2022-10-16T04:08:57.333Z,11.80
2022-10-16T04:11:25.891Z,11.70
2022-10-16T04:13:53.800Z,11.70
2022-10-16T04:16:21.959Z,11.70
2022-10-16T04:18:50.010Z,11.70
2022-10-16T04:21:18.671Z,11.60
2022-10-16T04:23:47.158Z,11.70
2022-10-16T04:26:15.531Z,11.70
2022-10-16T04:28:44.501Z,11.70
2022-10-16T04:31:12.674Z,11.60
2022-10-16T04:33:43.200Z,11.60
2022-10-16T04:36:11.318Z,11.60
2022-10-16T04:38:41.607Z,11.60
2022-10-16T04:41:09.638Z,11.50
2022-10-16T04:43:38.689Z,11.60
2022-10-16T04:46:06.772Z,11.60
2022-10-16T04:48:34.812Z,11.70
2022-10-16T04:51:03.466Z,11.70
2022-10-16T04:53:32.000Z,11.70
2022-10-16T04:56:00.408Z,11.60
2022-10-16T04:58:28.325Z,11.50
2022-10-16T05:00:56.233Z,11.40
2022-10-16T05:03:24.383Z,11.30
2022-10-16T05:05:52.444Z,11.20
2022-10-16T05:08:21.768Z,11.10
2022-10-16T05:10:49.837Z,11.10
2022-10-16T05:13:17.818Z,11.10
2022-10-16T05:15:49.373Z,11.20
2022-10-16T05:18:18.447Z,11.20
2022-10-16T05:20:46.448Z,11.20
2022-10-16T05:23:14.926Z,11.10
2022-10-16T05:25:42.971Z,11.20
2022-10-16T05:28:11.453Z,11.30
2022-10-16T05:30:40.825Z,11.30
2022-10-16T05:33:09.002Z,11.40
2022-10-16T05:35:36.903Z,11.40
2022-10-16T05:38:04.853Z,11.50
2022-10-16T05:40:32.774Z,11.70
2022-10-16T05:43:01.199Z,11.80
2022-10-16T05:45:56.026Z,11.90
2022-10-16T05:48:24.619Z,12.10
2022-10-16T05:51:06.342Z,12.30
2022-10-16T05:53:36.821Z,12.30
2022-10-16T05:56:07.399Z,12.40
2022-10-16T05:58:37.701Z,12.60
2022-10-16T06:01:15.366Z,12.70
2022-10-16T06:03:44.876Z,12.80
2022-10-16T06:06:15.489Z,12.90
2022-10-16T06:08:44.937Z,13.00
2022-10-16T06:11:18.554Z,13.30
2022-10-16T06:13:52.185Z,13.70
2022-10-16T06:16:20.885Z,13.80
2022-10-16T06:18:48.827Z,14.20
2022-10-16T06:21:20.166Z,14.40
2022-10-16T06:23:51.543Z,14.40
2022-10-16T06:26:22.295Z,14.60
2022-10-16T06:28:51.195Z,15.10
2022-10-16T06:31:20.399Z,15.30
2022-10-16T06:33:52.861Z,15.70
2022-10-16T06:36:22.293Z,16.30
2022-10-16T06:38:51.213Z,15.70
2022-10-16T06:41:21.853Z,15.50
2022-10-16T06:43:50.628Z,15.30
2022-10-16T06:46:22.449Z,15.20
2022-10-16T06:48:50.948Z,15.50
2022-10-16T06:51:21.272Z,15.40
2022-10-16T06:54:07.651Z,15.60
2022-10-16T06:56:36.765Z,15.40
2022-10-16T06:59:05.681Z,15.20
2022-10-16T07:01:34.525Z,15.00
2022-10-16T07:04:04.426Z,14.80
2022-10-16T07:06:34.693Z,15.00
2022-10-16T07:09:10.363Z,15.40
2022-10-16T07:11:40.803Z,15.50
2022-10-16T07:14:20.304Z,15.80
2022-10-16T07:16:49.809Z,16.00
2022-10-16T07:19:18.784Z,16.60
2022-10-16T07:21:47.814Z,17.00
2022-10-16T07:24:18.411Z,17.20
2022-10-16T07:26:47.475Z,17.30
2022-10-16T07:29:18.677Z,17.50
2022-10-16T07:31:48.029Z,17.00
2022-10-16T07:34:18.306Z,16.80
2022-10-16T07:36:50.567Z,16.50
2022-10-16T07:39:19.449Z,16.00
2022-10-16T07:41:47.421Z,16.10
2022-10-16T07:44:17.671Z,16.20
2022-10-16T07:46:45.679Z,16.80
2022-10-16T07:49:14.644Z,17.20
2022-10-16T07:51:43.449Z,17.90
2022-10-16T07:54:11.998Z,17.80
2022-10-16T07:56:43.040Z,17.90
2022-10-16T07:59:13.372Z,17.50
2022-10-16T08:01:43.387Z,17.90
2022-10-16T08:04:12.260Z,18.20
2022-10-16T08:06:41.346Z,18.70
2022-10-16T08:09:10.609Z,19.30
2022-10-16T08:11:38.736Z,18.40
2022-10-16T08:14:06.983Z,18.60
2022-10-16T08:16:35.624Z,18.70
2022-10-16T08:19:04.459Z,18.60
2022-10-16T08:21:33.398Z,18.60
2022-10-16T08:24:01.714Z,18.90
2022-10-16T08:26:29.726Z,18.80
2022-10-16T08:28:58.391Z,18.90
2022-10-16T08:31:28.524Z,18.50
2022-10-16T08:33:57.165Z,19.20
2022-10-16T08:36:25.556Z,19.30
2022-10-16T08:38:55.636Z,19.40
2022-10-16T08:41:51.790Z,19.10
2022-10-16T08:44:22.586Z,18.80
2022-10-16T08:47:19.602Z,19.90
2022-10-16T08:50:11.039Z,20.60
2022-10-16T08:52:43.029Z,21.40
2022-10-16T08:55:38.518Z,21.10
2022-10-16T08:58:15.876Z,20.40
2022-10-16T09:00:47.798Z,20.10
2022-10-16T09:03:38.789Z,20.00
2022-10-16T09:06:39.703Z,20.70
2022-10-16T09:09:32.193Z,21.90
2022-10-16T09:12:16.904Z,22.10
2022-10-16T09:15:07.559Z,21.80
2022-10-16T09:17:45.563Z,21.70
2022-10-16T09:20:40.753Z,22.50
2022-10-16T09:23:20.779Z,22.10
2022-10-16T09:25:51.456Z,22.00
2022-10-16T09:28:20.444Z,21.60
2022-10-16T09:30:50.965Z,21.60
2022-10-16T09:33:27.371Z,21.70
2022-10-16T09:35:59.505Z,22.30
2022-10-16T09:38:33.946Z,22.10
2022-10-16T09:41:11.631Z,22.40
2022-10-16T09:43:47.499Z,22.40
2022-10-16T09:46:30.770Z,22.60
2022-10-16T09:49:04.889Z,22.90
2022-10-16T09:51:38.463Z,23.00
2022-10-16T09:54:09.748Z,23.30
2022-10-16T09:56:41.752Z,23.30
2022-10-16T09:59:17.032Z,23.00
2022-10-16T10:01:50.892Z,22.90
2022-10-16T10:04:27.297Z,22.80
2022-10-16T10:06:57.929Z,22.80
2022-10-16T10:09:28.794Z,22.30
2022-10-16T10:11:57.470Z,22.40
2022-10-16T10:14:31.696Z,22.30
2022-10-16T10:17:23.020Z,22.20
2022-10-16T10:20:04.132Z,22.00
2022-10-16T10:22:43.396Z,22.10
2022-10-16T10:25:14.780Z,22.10
2022-10-16T10:28:03.782Z,22.20
2022-10-16T10:30:34.243Z,22.30
2022-10-16T10:33:23.963Z,22.30
2022-10-16T10:36:07.509Z,22.30
2022-10-16T10:39:10.149Z,22.20
2022-10-16T10:41:56.989Z,22.30
2022-10-16T10:44:35.736Z,22.70
2022-10-16T10:47:23.048Z,22.70
2022-10-16T10:50:08.213Z,22.50
2022-10-16T10:52:44.568Z,22.50
2022-10-16T10:55:33.173Z,22.30
2022-10-16T10:58:19.824Z,22.30
2022-10-16T11:01:17.248Z,22.50
2022-10-16T11:04:09.010Z,22.50
2022-10-16T11:06:39.631Z,22.60
2022-10-16T11:09:16.723Z,22.70
2022-10-16T11:11:54.576Z,22.70
2022-10-16T11:14:39.966Z,22.60
2022-10-16T11:17:38.854Z,22.80
2022-10-16T11:20:19.183Z,22.90
2022-10-16T11:23:01.596Z,22.80
2022-10-16T11:25:32.695Z,22.70
2022-10-16T11:28:26.515Z,22.90
2022-10-16T11:31:15.055Z,23.00
2022-10-16T11:34:19.200Z,23.10
2022-10-16T11:37:00.795Z,23.10
2022-10-16T11:39:34.335Z,23.10
2022-10-16T11:42:28.820Z,23.20
2022-10-16T11:45:17.075Z,23.20
2022-10-16T11:48:05.938Z,23.10
2022-10-16T11:50:42.983Z,22.90
2022-10-16T11:53:22.856Z,22.90
2022-10-16T11:55:51.027Z,23.00
2022-10-16T11:58:54.484Z,23.10
2022-10-16T12:01:45.684Z,23.10
2022-10-16T12:04:34.522Z,22.90
2022-10-16T12:07:10.169Z,23.00
2022-10-16T12:09:42.884Z,23.10
2022-10-16T12:12:41.304Z,23.10
2022-10-16T12:15:54.039Z,23.20
2022-10-16T12:18:25.533Z,23.10
2022-10-16T12:21:00.614Z,23.00
2022-10-16T12:23:29.408Z,23.00
2022-10-16T12:26:00.017Z,23.00
2022-10-16T12:28:33.848Z,23.00
2022-10-16T12:31:09.551Z,23.00
2022-10-16T12:34:03.105Z,22.90
2022-10-16T12:36:35.223Z,23.00
2022-10-16T12:39:04.032Z,23.00
2022-10-16T12:41:35.819Z,23.00
2022-10-16T12:44:04.401Z,23.00
2022-10-16T12:46:36.501Z,23.00
2022-10-16T12:49:31.089Z,23.00
2022-10-16T12:52:00.164Z,23.00
2022-10-16T12:54:37.050Z,22.90
2022-10-16T12:57:23.007Z,23.00
2022-10-16T13:00:10.990Z,23.00
2022-10-16T13:02:50.296Z,22.90
2022-10-16T13:05:40.990Z,22.90
2022-10-16T13:08:40.375Z,22.90
2022-10-16T13:11:18.398Z,22.90
2022-10-16T13:14:27.574Z,22.80
2022-10-16T13:16:58.603Z,22.80
2022-10-16T13:19:45.817Z,22.80
2022-10-16T13:22:29.673Z,22.80
2022-10-16T13:25:13.099Z,22.80
2022-10-16T13:28:07.847Z,22.90
2022-10-16T13:30:44.062Z,22.90
2022-10-16T13:33:19.346Z,22.80
2022-10-16T13:35:53.585Z,22.90
2022-10-16T13:38:28.122Z,22.90
2022-10-16T13:41:02.769Z,22.90
2022-10-16T13:43:37.924Z,22.90
2022-10-16T13:46:18.598Z,22.80
2022-10-16T13:49:01.639Z,22.90
2022-10-16T13:51:30.970Z,22.90
2022-10-16T13:53:59.420Z,22.90
2022-10-16T13:56:29.690Z,22.70
2022-10-16T13:59:05.353Z,22.70
2022-10-16T14:01:42.778Z,22.70
2022-10-16T14:04:14.752Z,22.70
2022-10-16T14:06:45.622Z,22.70
2022-10-16T14:09:30.810Z,22.80
2022-10-16T14:12:01.631Z,22.80
2022-10-16T14:14:54.741Z,22.90
2022-10-16T14:17:26.931Z,23.00
2022-10-16T14:20:00.931Z,22.90
2022-10-16T14:22:36.628Z,22.80
2022-10-16T14:25:38.039Z,22.90
2022-10-16T14:28:21.094Z,22.90
2022-10-16T14:30:59.173Z,22.70
2022-10-16T14:33:30.728Z,22.50
2022-10-16T14:36:12.641Z,22.40
2022-10-16T14:38:50.206Z,22.30
2022-10-16T14:41:24.236Z,22.30
2022-10-16T14:43:56.242Z,22.20
2022-10-16T14:46:33.037Z,22.20
2022-10-16T14:49:16.741Z,22.10
2022-10-16T14:51:45.962Z,22.00
2022-10-16T14:54:18.949Z,22.00
2022-10-16T14:57:01.439Z,21.90
2022-10-16T14:59:31.604Z,21.90
2022-10-16T15:02:00.431Z,21.80
2022-10-16T15:04:28.342Z,21.80
2022-10-16T15:06:57.018Z,21.90
2022-10-16T15:09:25.082Z,21.90
2022-10-16T15:11:53.081Z,21.90
2022-10-16T15:14:21.589Z,21.90
2022-10-16T15:16:49.851Z,21.90
2022-10-16T15:19:18.428Z,22.00
2022-10-16T15:21:47.135Z,22.00
2022-10-16T15:24:19.164Z,22.00
2022-10-16T15:26:50.468Z,22.10
2022-10-16T15:29:19.300Z,22.10
2022-10-16T15:31:48.693Z,22.00
2022-10-16T15:34:19.420Z,22.00
2022-10-16T15:36:47.472Z,21.90
2022-10-16T15:39:18.887Z,21.90
2022-10-16T15:41:52.407Z,21.80
2022-10-16T15:44:21.699Z,21.80
2022-10-16T15:46:50.015Z,21.70
2022-10-16T15:49:18.542Z,21.70
2022-10-16T15:51:47.647Z,21.60
2022-10-16T15:54:16.281Z,21.60
2022-10-16T15:56:46.651Z,21.50
2022-10-16T15:59:15.525Z,21.40
2022-10-16T16:01:43.749Z,21.30
2022-10-16T16:04:31.774Z,21.20
2022-10-16T16:07:02.448Z,21.20
2022-10-16T16:09:31.499Z,21.00
2022-10-16T16:12:02.001Z,20.90
2022-10-16T16:14:30.176Z,20.70
2022-10-16T16:16:59.350Z,20.60
2022-10-16T16:19:27.957Z,20.50
2022-10-16T16:21:57.347Z,20.40
2022-10-16T16:24:25.510Z,20.20
2022-10-16T16:26:54.057Z,20.00
2022-10-16T16:29:22.472Z,19.60
2022-10-16T16:31:50.488Z,19.60
2022-10-16T16:34:18.432Z,19.50
2022-10-16T16:36:46.877Z,19.30
2022-10-16T16:39:15.231Z,19.30
2022-10-16T16:41:44.345Z,19.10
2022-10-16T16:44:13.906Z,19.00
2022-10-16T16:46:43.987Z,18.90
2022-10-16T16:49:14.341Z,18.70
2022-10-16T16:51:42.539Z,18.60
2022-10-16T16:54:12.931Z,18.30
2022-10-16T16:56:46.193Z,18.10
2022-10-16T16:59:17.211Z,17.90
2022-10-16T17:01:49.968Z,17.80
2022-10-16T17:04:20.476Z,17.70
2022-10-16T17:06:49.170Z,17.60
2022-10-16T17:09:17.666Z,17.50
2022-10-16T17:11:46.858Z,17.40
2022-10-16T17:14:15.272Z,17.40
2022-10-16T17:16:46.616Z,17.30
2022-10-16T17:19:17.128Z,17.20
2022-10-16T17:21:46.071Z,17.20
2022-10-16T17:24:14.217Z,17.30
2022-10-16T17:26:44.618Z,17.30
2022-10-16T17:29:13.658Z,17.30
2022-10-16T17:31:42.561Z,17.50
2022-10-16T17:34:12.289Z,17.50
2022-10-16T17:36:46.830Z,17.40
2022-10-16T17:39:17.986Z,17.30
2022-10-16T17:41:47.239Z,17.10
2022-10-16T17:44:20.204Z,16.90
2022-10-16T17:46:49.958Z,16.70
2022-10-16T17:49:19.735Z,16.50
2022-10-16T17:51:54.272Z,16.50
2022-10-16T17:54:23.030Z,16.40
2022-10-16T17:56:51.644Z,16.30
2022-10-16T17:59:23.254Z,16.30
2022-10-16T18:01:51.979Z,16.20
2022-10-16T18:04:20.234Z,16.20
2022-10-16T18:06:49.106Z,16.20
2022-10-16T18:09:20.793Z,16.30
2022-10-16T18:11:49.696Z,16.30
2022-10-16T18:14:18.515Z,16.30
2022-10-16T18:16:46.640Z,16.30
2022-10-16T18:19:15.217Z,16.40
2022-10-16T18:21:43.196Z,16.40
2022-10-16T18:24:12.041Z,16.40
2022-10-16T18:26:40.985Z,16.30
2022-10-16T18:29:12.081Z,16.20
2022-10-16T18:31:42.924Z,16.20
2022-10-16T18:34:15.052Z,16.10
2022-10-16T18:36:43.302Z,16.00
2022-10-16T18:39:13.100Z,16.00
2022-10-16T18:41:44.893Z,15.90
2022-10-16T18:44:13.984Z,15.90
2022-10-16T18:46:42.900Z,15.90
2022-10-16T18:49:11.267Z,15.80
2022-10-16T18:51:41.243Z,15.70
2022-10-16T18:54:12.341Z,15.60
2022-10-16T18:56:40.887Z,15.50
2022-10-16T18:59:10.741Z,15.40
2022-10-16T19:01:40.126Z,15.40
2022-10-16T19:04:11.933Z,15.40
2022-10-16T19:06:48.533Z,15.40
2022-10-16T19:09:19.025Z,15.40
2022-10-16T19:11:47.257Z,15.40
2022-10-16T19:14:17.522Z,15.40
2022-10-16T19:16:45.762Z,15.20
2022-10-16T19:19:17.282Z,15.30
2022-10-16T19:21:48.462Z,15.30
2022-10-16T19:24:17.119Z,15.30
2022-10-16T19:26:45.285Z,15.30
2022-10-16T19:29:13.350Z,15.40
2022-10-16T19:31:42.080Z,15.40
2022-10-16T19:34:11.758Z,15.40
2022-10-16T19:36:41.112Z,15.40
2022-10-16T19:39:14.248Z,15.40
2022-10-16T19:41:42.861Z,15.30
2022-10-16T19:44:14.678Z,15.30
2022-10-16T19:46:43.766Z,15.30
2022-10-16T19:49:14.217Z,15.20
2022-10-16T19:51:42.643Z,15.20
2022-10-16T19:54:14.160Z,15.20
2022-10-16T19:56:43.242Z,15.10
2022-10-16T19:59:13.586Z,15.10
2022-10-16T20:01:42.221Z,15.10
2022-10-16T20:04:10.516Z,15.00
2022-10-16T20:06:38.946Z,14.90
2022-10-16T20:09:07.124Z,14.80
2022-10-16T20:11:36.731Z,14.90
2022-10-16T20:14:05.888Z,14.90
2022-10-16T20:16:35.322Z,14.90
2022-10-16T20:19:04.329Z,14.90
2022-10-16T20:21:35.074Z,14.90
2022-10-16T20:24:06.494Z,14.90
2022-10-16T20:26:35.914Z,14.90
2022-10-16T20:29:05.665Z,14.90
2022-10-16T20:31:35.039Z,14.90
2022-10-16T20:34:09.118Z,14.80
2022-10-16T20:36:39.737Z,14.80
2022-10-16T20:39:08.904Z,14.70
2022-10-16T20:41:37.475Z,14.70
2022-10-16T20:44:06.669Z,14.70
2022-10-16T20:46:34.764Z,14.60
2022-10-16T20:49:10.723Z,14.60
2022-10-16T20:51:45.802Z,14.60
2022-10-16T20:54:13.980Z,14.60
2022-10-16T20:56:44.145Z,14.60
2022-10-16T20:59:13.152Z,14.50
2022-10-16T21:01:41.866Z,14.40
2022-10-16T21:04:09.976Z,14.40
2022-10-16T21:06:40.047Z,14.20
2022-10-16T21:09:09.547Z,14.10
2022-10-16T21:11:38.694Z,14.00
2022-10-16T21:14:09.165Z,14.00
2022-10-16T21:16:37.455Z,14.00
2022-10-16T21:19:06.167Z,13.90
2022-10-16T21:21:38.896Z,13.80
2022-10-16T21:24:12.130Z,13.80
2022-10-16T21:26:43.453Z,13.80
2022-10-16T21:29:12.298Z,13.90
2022-10-16T21:31:40.997Z,13.80
2022-10-16T21:34:10.783Z,13.70
2022-10-16T21:36:41.384Z,13.70
2022-10-16T21:39:18.259Z,13.70
2022-10-16T21:41:49.379Z,13.70
2022-10-16T21:44:20.461Z,13.80
2022-10-16T21:46:50.528Z,13.80
2022-10-16T21:49:19.924Z,13.70
2022-10-16T21:51:50.374Z,13.70
2022-10-16T21:54:22.245Z,13.70
2022-10-16T21:56:52.643Z,13.70
2022-10-16T21:59:21.092Z,13.80
2022-10-16T22:01:49.429Z,13.80
2022-10-16T22:04:18.694Z,13.80
2022-10-16T22:06:47.128Z,13.80
2022-10-16T22:09:16.302Z,13.80
2022-10-16T22:11:45.902Z,13.80
2022-10-16T22:14:17.384Z,13.70
2022-10-16T22:16:46.682Z,13.70
2022-10-16T22:19:17.438Z,13.80
2022-10-16T22:21:47.468Z,13.90
2022-10-16T22:24:16.891Z,14.00
2022-10-16T22:26:45.950Z,14.00
2022-10-16T22:29:15.304Z,13.90
2022-10-16T22:31:44.577Z,13.80
2022-10-16T22:34:14.413Z,13.80
2022-10-16T22:36:43.339Z,13.80
2022-10-16T22:39:12.126Z,13.80
2022-10-16T22:41:40.631Z,13.80
2022-10-16T22:44:12.093Z,13.60
2022-10-16T22:46:40.211Z,13.70
2022-10-16T22:49:08.343Z,13.60
2022-10-16T22:51:36.840Z,13.50
2022-10-16T22:54:05.453Z,13.40
2022-10-16T22:56:33.479Z,13.50
2022-10-16T22:59:02.170Z,13.50
2022-10-16T23:01:33.714Z,13.40
2022-10-16T23:04:02.026Z,13.30
2022-10-16T23:06:30.618Z,13.30
2022-10-16T23:09:00.928Z,13.20
2022-10-16T23:11:30.898Z,13.20
2022-10-16T23:13:59.540Z,13.10
2022-10-16T23:16:27.513Z,13.10
2022-10-16T23:18:55.702Z,13.10
2022-10-16T23:21:25.567Z,13.10
2022-10-16T23:23:54.875Z,13.10
2022-10-16T23:26:25.924Z,13.00
2022-10-16T23:28:57.061Z,12.90
2022-10-16T23:31:25.545Z,13.00
2022-10-16T23:33:53.537Z,13.10
2022-10-16T23:36:22.142Z,13.30
2022-10-16T23:38:51.169Z,13.40
2022-10-16T23:41:20.201Z,13.40
2022-10-16T23:43:49.219Z,13.30
2022-10-16T23:46:18.444Z,13.30
2022-10-16T23:48:46.568Z,13.30
2022-10-16T23:51:14.539Z,13.20
2022-10-16T23:53:42.573Z,13.20
2022-10-16T23:56:10.866Z,13.10
2022-10-16T23:58:39.450Z,13.00
